sensor_id;sensor_type;location;lat;lon;timestamp;pressure;altitude;pressure_sealevel;temperature;humidity
70521;BME280;58442;52.716;23.560;2023-02-16T00:02:00;102457.10;;;1.74;76.95
70521;BME280;58442;52.716;23.560;2023-02-16T00:06:14;102454.60;;;1.68;77.03
70521;BME280;58442;52.716;23.560;2023-02-16T00:08:16;102446.81;;;1.66;77.08
70521;BME280;58442;52.716;23.560;2023-02-16T00:10:18;102447.62;;;1.67;77.03
70521;BME280;58442;52.716;23.560;2023-02-16T00:12:20;102443.32;;;1.66;76.98
70521;BME280;58442;52.716;23.560;2023-02-16T00:14:36;102434.70;;;1.63;76.96
70521;BME280;58442;52.716;23.560;2023-02-16T00:16:38;102427.72;;;1.62;76.92
70521;BME280;58442;52.716;23.560;2023-02-16T00:18:39;102424.48;;;1.60;76.89
70521;BME280;58442;52.716;23.560;2023-02-16T00:20:40;102414.49;;;1.56;76.87
70521;BME280;58442;52.716;23.560;2023-02-16T00:22:42;102407.20;;;1.51;76.85
70521;BME280;58442;52.716;23.560;2023-02-16T00:24:43;102400.70;;;1.47;76.91
70521;BME280;58442;52.716;23.560;2023-02-16T00:26:54;102408.98;;;1.46;76.92
70521;BME280;58442;52.716;23.560;2023-02-16T00:28:56;102396.32;;;1.41;76.91
70521;BME280;58442;52.716;23.560;2023-02-16T00:30:59;102395.16;;;1.37;77.00
70521;BME280;58442;52.716;23.560;2023-02-16T00:33:00;102397.80;;;1.32;77.15
70521;BME280;58442;52.716;23.560;2023-02-16T00:35:15;102393.97;;;1.28;77.22
70521;BME280;58442;52.716;23.560;2023-02-16T00:37:17;102382.70;;;1.26;77.32
70521;BME280;58442;52.716;23.560;2023-02-16T00:39:18;102384.31;;;1.27;77.32
70521;BME280;58442;52.716;23.560;2023-02-16T00:41:22;102378.95;;;1.27;77.28
70521;BME280;58442;52.716;23.560;2023-02-16T00:43:36;102378.95;;;1.27;77.23
70521;BME280;58442;52.716;23.560;2023-02-16T00:45:45;102378.95;;;1.27;77.22
70521;BME280;58442;52.716;23.560;2023-02-16T00:47:50;102378.14;;;1.26;77.21
70521;BME280;58442;52.716;23.560;2023-02-16T00:49:53;102368.24;;;1.27;77.16
70521;BME280;58442;52.716;23.560;2023-02-16T00:51:55;102365.02;;;1.25;77.17
70521;BME280;58442;52.716;23.560;2023-02-16T00:54:00;102359.05;;;1.23;77.19
70521;BME280;58442;52.716;23.560;2023-02-16T00:56:01;102353.16;;;1.21;77.26
70521;BME280;58442;52.716;23.560;2023-02-16T01:00:24;102347.23;;;1.19;77.36
70521;BME280;58442;52.716;23.560;2023-02-16T01:02:27;102343.50;;;1.20;77.37
70521;BME280;58442;52.716;23.560;2023-02-16T01:04:37;102336.27;;;1.20;77.43
70521;BME280;58442;52.716;23.560;2023-02-16T01:06:38;102342.43;;;1.21;77.46
70521;BME280;58442;52.716;23.560;2023-02-16T01:08:52;102330.67;;;1.22;77.47
70521;BME280;58442;52.716;23.560;2023-02-16T01:11:07;102321.57;;;1.23;77.50
70521;BME280;58442;52.716;23.560;2023-02-16T01:13:11;102317.28;;;1.22;77.50
70521;BME280;58442;52.716;23.560;2023-02-16T01:15:21;102315.19;;;1.24;77.53
70521;BME280;58442;52.716;23.560;2023-02-16T01:17:23;102311.45;;;1.25;77.54
70521;BME280;58442;52.716;23.560;2023-02-16T01:19:25;102301.55;;;1.25;77.53
70521;BME280;58442;52.716;23.560;2023-02-16T01:21:26;102302.36;;;1.26;77.50
70521;BME280;58442;52.716;23.560;2023-02-16T01:23:32;102298.61;;;1.27;77.51
70521;BME280;58442;52.716;23.560;2023-02-16T01:25:35;102297.81;;;1.26;77.53
70521;BME280;58442;52.716;23.560;2023-02-16T01:27:38;102305.04;;;1.26;77.56
70521;BME280;58442;52.716;23.560;2023-02-16T01:29:39;102302.36;;;1.26;77.55
70521;BME280;58442;52.716;23.560;2023-02-16T01:31:47;102298.87;;;1.25;77.56
70521;BME280;58442;52.716;23.560;2023-02-16T01:33:48;102299.68;;;1.26;77.63
70521;BME280;58442;52.716;23.560;2023-02-16T01:35:52;102297.00;;;1.26;77.67
70521;BME280;58442;52.716;23.560;2023-02-16T01:37:55;102290.58;;;1.27;77.68
70521;BME280;58442;52.716;23.560;2023-02-16T01:40:02;102294.88;;;1.28;77.64
70521;BME280;58442;52.716;23.560;2023-02-16T01:42:12;102299.98;;;1.29;77.62
70521;BME280;58442;52.716;23.560;2023-02-16T01:44:24;102282.88;;;1.30;77.59
70521;BME280;58442;52.716;23.560;2023-02-16T01:46:37;102278.34;;;1.31;77.51
70521;BME280;58442;52.716;23.560;2023-02-16T01:48:39;102267.62;;;1.31;77.50
70521;BME280;58442;52.716;23.560;2023-02-16T01:53:11;102262.73;;;1.28;77.60
70521;BME280;58442;52.716;23.560;2023-02-16T01:55:22;102268.91;;;1.28;77.72
70521;BME280;58442;52.716;23.560;2023-02-16T02:01:55;102249.91;;;1.30;77.74
70521;BME280;58442;52.716;23.560;2023-02-16T02:03:58;102252.58;;;1.30;77.72
70521;BME280;58442;52.716;23.560;2023-02-16T02:06:19;102245.61;;;1.29;77.73
70521;BME280;58442;52.716;23.560;2023-02-16T02:08:30;102245.86;;;1.27;77.77
70521;BME280;58442;52.716;23.560;2023-02-16T02:14:58;102241.57;;;1.26;77.78
70521;BME280;58442;52.716;23.560;2023-02-16T02:17:04;102241.83;;;1.25;77.86
70521;BME280;58442;52.716;23.560;2023-02-16T02:19:06;102248.80;;;1.26;77.89
70521;BME280;58442;52.716;23.560;2023-02-16T02:28:15;102232.22;;;1.29;77.61
70521;BME280;58442;52.716;23.560;2023-02-16T02:30:29;102235.95;;;1.28;77.61
70521;BME280;58442;52.716;23.560;2023-02-16T02:32:44;102226.30;;;1.27;77.62
70521;BME280;58442;52.716;23.560;2023-02-16T02:37:19;102230.60;;;1.28;77.56
70521;BME280;58442;52.716;23.560;2023-02-16T02:39:35;102218.27;;;1.27;77.53
70521;BME280;58442;52.716;23.560;2023-02-16T02:42:08;102216.66;;;1.26;77.55
70521;BME280;58442;52.716;23.560;2023-02-16T02:44:07;102215.85;;;1.25;77.55
70521;BME280;58442;52.716;23.560;2023-02-16T02:48:30;102217.47;;;1.26;77.56
70521;BME280;58442;52.716;23.560;2023-02-16T02:50:40;102216.66;;;1.26;77.54
70521;BME280;58442;52.716;23.560;2023-02-16T02:53:00;102222.01;;;1.26;77.54
70521;BME280;58442;52.716;23.560;2023-02-16T02:55:02;102213.98;;;1.26;77.53
70521;BME280;58442;52.716;23.560;2023-02-16T02:57:29;102221.20;;;1.25;77.47
70521;BME280;58442;52.716;23.560;2023-02-16T02:59:50;102215.85;;;1.25;77.47
70521;BME280;58442;52.716;23.560;2023-02-16T03:02:05;102218.79;;;1.24;77.53
70521;BME280;58442;52.716;23.560;2023-02-16T03:04:08;102224.14;;;1.24;77.46
70521;BME280;58442;52.716;23.560;2023-02-16T03:08:34;102216.03;;;1.19;77.51
70521;BME280;58442;52.716;23.560;2023-02-16T03:10:36;102216.50;;;1.16;77.57
70521;BME280;58442;52.716;23.560;2023-02-16T03:12:50;102213.61;;;1.17;77.66
70521;BME280;58442;52.716;23.560;2023-02-16T03:14:55;102212.77;;;1.17;77.62
70521;BME280;58442;52.716;23.560;2023-02-16T03:17:00;102213.84;;;1.16;77.63
70521;BME280;58442;52.716;23.560;2023-02-16T03:19:17;102204.99;;;1.15;77.66
70521;BME280;58442;52.716;23.560;2023-02-16T03:21:37;102207.92;;;1.14;77.63
70521;BME280;58442;52.716;23.560;2023-02-16T03:24:00;102207.38;;;1.12;77.71
70521;BME280;58442;52.716;23.560;2023-02-16T03:26:20;102202.27;;;1.10;77.74
70521;BME280;58442;52.716;23.560;2023-02-16T03:28:42;102199.81;;;1.08;77.81
70521;BME280;58442;52.716;23.560;2023-02-16T03:31:04;102201.44;;;1.09;77.73
70521;BME280;58442;52.716;23.560;2023-02-16T03:33:07;102190.72;;;1.09;77.70
70521;BME280;58442;52.716;23.560;2023-02-16T03:35:08;102184.55;;;1.09;77.66
70521;BME280;58442;52.716;23.560;2023-02-16T03:37:12;102185.62;;;1.08;77.64
70521;BME280;58442;52.716;23.560;2023-02-16T03:39:18;102183.20;;;1.06;77.60
70521;BME280;58442;52.716;23.560;2023-02-16T03:41:21;102186.42;;;1.08;77.59
70521;BME280;58442;52.716;23.560;2023-02-16T03:43:27;102184.55;;;1.09;77.73
70521;BME280;58442;52.716;23.560;2023-02-16T03:45:30;102177.59;;;1.08;77.52
70521;BME280;58442;52.716;23.560;2023-02-16T03:47:32;102173.80;;;1.04;77.50
70521;BME280;58442;52.716;23.560;2023-02-16T03:49:34;102170.55;;;1.02;77.59
70521;BME280;58442;52.716;23.560;2023-02-16T03:51:35;102172.41;;;1.01;77.63
70521;BME280;58442;52.716;23.560;2023-02-16T03:53:36;102170.80;;;1.00;77.79
70521;BME280;58442;52.716;23.560;2023-02-16T03:55:47;102167.56;;;0.98;77.73
70521;BME280;58442;52.716;23.560;2023-02-16T03:57:49;102165.15;;;0.97;77.73
70521;BME280;58442;52.716;23.560;2023-02-16T03:59:50;102161.08;;;0.94;77.83
70521;BME280;58442;52.716;23.560;2023-02-16T04:01:54;102153.55;;;0.91;77.86
70521;BME280;58442;52.716;23.560;2023-02-16T04:04:03;102154.03;;;0.88;77.91
70521;BME280;58442;52.716;23.560;2023-02-16T04:06:05;102136.37;;;0.87;77.98
70521;BME280;58442;52.716;23.560;2023-02-16T04:08:07;102144.94;;;0.89;77.99
70521;BME280;58442;52.716;23.560;2023-02-16T04:10:08;102123.53;;;0.89;77.94
70521;BME280;58442;52.716;23.560;2023-02-16T04:12:18;102128.08;;;0.89;77.99
70521;BME280;58442;52.716;23.560;2023-02-16T04:14:39;102132.63;;;0.88;77.95
70521;BME280;58442;52.716;23.560;2023-02-16T04:16:40;102121.91;;;0.88;77.95
70521;BME280;58442;52.716;23.560;2023-02-16T04:18:42;102121.63;;;0.85;77.94
70521;BME280;58442;52.716;23.560;2023-02-16T04:20:43;102124.55;;;0.83;78.03
70521;BME280;58442;52.716;23.560;2023-02-16T04:22:54;102114.88;;;0.82;77.99
70521;BME280;58442;52.716;23.560;2023-02-16T04:24:56;102113.26;;;0.81;78.02
70521;BME280;58442;52.716;23.560;2023-02-16T04:26:57;102119.12;;;0.78;78.06
70521;BME280;58442;52.716;23.560;2023-02-16T04:28:59;102110.84;;;0.79;78.13
70521;BME280;58442;52.716;23.560;2023-02-16T04:31:09;102105.48;;;0.79;78.11
70521;BME280;58442;52.716;23.560;2023-02-16T04:33:10;102105.48;;;0.79;78.02
70521;BME280;58442;52.716;23.560;2023-02-16T04:35:12;102104.69;;;0.79;78.05
70521;BME280;58442;52.716;23.560;2023-02-16T04:37:14;102098.78;;;0.77;78.05
70521;BME280;58442;52.716;23.560;2023-02-16T04:39:24;102101.93;;;0.74;78.10
70521;BME280;58442;52.716;23.560;2023-02-16T04:41:26;102097.64;;;0.73;78.17
70521;BME280;58442;52.716;23.560;2023-02-16T04:43:27;102097.35;;;0.69;78.09
70521;BME280;58442;52.716;23.560;2023-02-16T04:45:28;102094.33;;;0.66;78.26
70521;BME280;58442;52.716;23.560;2023-02-16T04:47:39;102096.76;;;0.67;78.33
70521;BME280;58442;52.716;23.560;2023-02-16T04:49:41;102090.34;;;0.68;78.30
70521;BME280;58442;52.716;23.560;2023-02-16T04:51:42;102091.19;;;0.69;78.29
70521;BME280;58442;52.716;23.560;2023-02-16T04:53:44;102083.16;;;0.69;78.30
70521;BME280;58442;52.716;23.560;2023-02-16T04:55:54;102084.77;;;0.70;78.26
70521;BME280;58442;52.716;23.560;2023-02-16T04:57:56;102076.49;;;0.71;78.21
70521;BME280;58442;52.716;23.560;2023-02-16T04:59:57;102076.49;;;0.71;78.20
70521;BME280;58442;52.716;23.560;2023-02-16T05:01:58;102083.45;;;0.72;78.18
70521;BME280;58442;52.716;23.560;2023-02-16T05:04:10;102079.17;;;0.71;78.06
70521;BME280;58442;52.716;23.560;2023-02-16T05:06:11;102077.55;;;0.70;78.08
70521;BME280;58442;52.716;23.560;2023-02-16T05:08:12;102082.90;;;0.70;78.15
70521;BME280;58442;52.716;23.560;2023-02-16T05:10:14;102070.81;;;0.68;78.14
70521;BME280;58442;52.716;23.560;2023-02-16T05:12:25;102073.48;;;0.68;78.21
70521;BME280;58442;52.716;23.560;2023-02-16T05:14:46;102070.26;;;0.66;78.16
70521;BME280;58442;52.716;23.560;2023-02-16T05:16:49;102071.80;;;0.62;78.21
70521;BME280;58442;52.716;23.560;2023-02-16T05:18:50;102067.03;;;0.64;78.27
70521;BME280;58442;52.716;23.560;2023-02-16T05:20:52;102065.72;;;0.66;78.25
70521;BME280;58442;52.716;23.560;2023-02-16T05:23:05;102064.10;;;0.65;78.14
70521;BME280;58442;52.716;23.560;2023-02-16T05:25:06;102065.16;;;0.64;78.18
70521;BME280;58442;52.716;23.560;2023-02-16T05:27:14;102063.55;;;0.63;78.19
70521;BME280;58442;52.716;23.560;2023-02-16T05:29:16;102059.55;;;0.66;78.23
70521;BME280;58442;52.716;23.560;2023-02-16T05:31:17;102055.02;;;0.66;78.18
70521;BME280;58442;52.716;23.560;2023-02-16T05:33:19;102051.80;;;0.64;78.17
70521;BME280;58442;52.716;23.560;2023-02-16T05:35:20;102057.69;;;0.66;78.17
70521;BME280;58442;52.716;23.560;2023-02-16T05:37:21;102042.45;;;0.67;78.09
70521;BME280;58442;52.716;23.560;2023-02-16T05:39:31;102052.59;;;0.65;78.06
70521;BME280;58442;52.716;23.560;2023-02-16T05:41:33;102046.70;;;0.63;78.12
70521;BME280;58442;52.716;23.560;2023-02-16T05:43:34;102051.24;;;0.62;78.14
70521;BME280;58442;52.716;23.560;2023-02-16T05:45:37;102055.75;;;0.62;78.13
70521;BME280;58442;52.716;23.560;2023-02-16T05:47:46;102052.85;;;0.63;78.19
70521;BME280;58442;52.716;23.560;2023-02-16T05:49:48;102051.80;;;0.64;78.10
70521;BME280;58442;52.716;23.560;2023-02-16T05:51:49;102048.31;;;0.64;78.13
70521;BME280;58442;52.716;23.560;2023-02-16T05:53:50;102050.73;;;0.65;78.08
70521;BME280;58442;52.716;23.560;2023-02-16T05:56:01;102053.66;;;0.64;78.05
70521;BME280;58442;52.716;23.560;2023-02-16T05:58:03;102050.17;;;0.63;78.04
70521;BME280;58442;52.716;23.560;2023-02-16T06:00:05;102042.95;;;0.64;78.09
70521;BME280;58442;52.716;23.560;2023-02-16T06:02:06;102051.80;;;0.64;78.08
70521;BME280;58442;52.716;23.560;2023-02-16T06:04:17;102038.16;;;0.66;78.12
70521;BME280;58442;52.716;23.560;2023-02-16T06:06:18;102039.77;;;0.67;78.07
70521;BME280;58442;52.716;23.560;2023-02-16T06:08:20;102033.36;;;0.68;78.00
70521;BME280;58442;52.716;23.560;2023-02-16T06:10:21;102037.09;;;0.67;78.04
70521;BME280;58442;52.716;23.560;2023-02-16T06:12:31;102034.42;;;0.67;78.10
70521;BME280;58442;52.716;23.560;2023-02-16T06:14:34;102028.59;;;0.70;78.10
70521;BME280;58442;52.716;23.560;2023-02-16T06:16:38;102037.42;;;0.70;78.06
70521;BME280;58442;52.716;23.560;2023-02-16T06:18:39;102031.82;;;0.72;78.07
70521;BME280;58442;52.716;23.560;2023-02-16T06:20:47;102031.82;;;0.72;78.13
70521;BME280;58442;52.716;23.560;2023-02-16T06:22:48;102030.76;;;0.73;78.14
70521;BME280;58442;52.716;23.560;2023-02-16T06:24:49;102028.63;;;0.75;78.19
70521;BME280;58442;52.716;23.560;2023-02-16T06:26:50;102034.56;;;0.77;78.15
70521;BME280;58442;52.716;23.560;2023-02-16T06:29:02;102036.98;;;0.78;78.13
70521;BME280;58442;52.716;23.560;2023-02-16T06:31:03;102035.11;;;0.79;78.12
70521;BME280;58442;52.716;23.560;2023-02-16T06:33:05;102031.38;;;0.80;78.09
70521;BME280;58442;52.716;23.560;2023-02-16T06:35:06;102031.92;;;0.82;78.10
70521;BME280;58442;52.716;23.560;2023-02-16T06:37:17;102029.02;;;0.84;78.16
70521;BME280;58442;52.716;23.560;2023-02-16T06:39:18;102024.77;;;0.88;78.36
70521;BME280;58442;52.716;23.560;2023-02-16T06:41:20;102024.52;;;0.89;78.06
70521;BME280;58442;52.716;23.560;2023-02-16T06:43:33;102021.36;;;0.92;78.02
70521;BME280;58442;52.716;23.560;2023-02-16T06:45:34;102022.48;;;0.96;77.98
70521;BME280;58442;52.716;23.560;2023-02-16T06:47:36;102012.81;;;0.95;77.96
70521;BME280;58442;52.716;23.560;2023-02-16T06:49:38;102010.70;;;0.97;78.05
70521;BME280;58442;52.716;23.560;2023-02-16T06:51:39;102014.74;;;1.00;78.01
70521;BME280;58442;52.716;23.560;2023-02-16T06:53:48;102021.45;;;1.02;77.94
70521;BME280;58442;52.716;23.560;2023-02-16T06:55:49;102017.16;;;1.01;77.99
70521;BME280;58442;52.716;23.560;2023-02-16T06:57:51;102016.09;;;1.02;78.02
70521;BME280;58442;52.716;23.560;2023-02-16T06:59:52;102023.64;;;1.05;78.01
70521;BME280;58442;52.716;23.560;2023-02-16T07:02:03;102020.45;;;1.08;77.98
70521;BME280;58442;52.716;23.560;2023-02-16T07:04:04;102011.92;;;1.12;77.93
70521;BME280;58442;52.716;23.560;2023-02-16T07:06:06;102014.89;;;1.15;77.88
70521;BME280;58442;52.716;23.560;2023-02-16T07:08:07;102005.57;;;1.18;77.85
70521;BME280;58442;52.716;23.560;2023-02-16T07:10:19;102006.92;;;1.20;77.76
70521;BME280;58442;52.716;23.560;2023-02-16T07:12:20;102004.23;;;1.20;77.73
70521;BME280;58442;52.716;23.560;2023-02-16T07:14:22;102007.24;;;1.24;77.77
70521;BME280;58442;52.716;23.560;2023-02-16T07:16:23;102002.43;;;1.26;77.67
70521;BME280;58442;52.716;23.560;2023-02-16T07:18:36;101994.94;;;1.28;77.61
70521;BME280;58442;52.716;23.560;2023-02-16T07:20:37;101992.27;;;1.28;77.65
70521;BME280;58442;52.716;23.560;2023-02-16T07:22:38;101990.96;;;1.30;77.70
70521;BME280;58442;52.716;23.560;2023-02-16T07:24:40;101986.96;;;1.33;77.67
70521;BME280;58442;52.716;23.560;2023-02-16T07:26:51;101983.75;;;1.36;77.67
70521;BME280;58442;52.716;23.560;2023-02-16T07:28:52;101980.59;;;1.39;77.68
70521;BME280;58442;52.716;23.560;2023-02-16T07:30:53;101983.33;;;1.44;77.63
70521;BME280;58442;52.716;23.560;2023-02-16T07:32:55;101979.05;;;1.48;77.52
70521;BME280;58442;52.716;23.560;2023-02-16T07:35:07;101974.80;;;1.52;77.53
70521;BME280;58442;52.716;23.560;2023-02-16T07:37:08;101978.58;;;1.56;77.49
70521;BME280;58442;52.716;23.560;2023-02-16T07:39:10;101976.20;;;1.60;77.46
70521;BME280;58442;52.716;23.560;2023-02-16T07:41:12;101970.32;;;1.63;77.39
70521;BME280;58442;52.716;23.560;2023-02-16T07:43:22;101965.27;;;1.67;77.36
70521;BME280;58442;52.716;23.560;2023-02-16T07:45:24;101971.71;;;1.71;77.35
70521;BME280;58442;52.716;23.560;2023-02-16T07:47:25;101973.90;;;1.74;77.37
70521;BME280;58442;52.716;23.560;2023-02-16T07:49:26;101968.01;;;1.77;77.25
70521;BME280;58442;52.716;23.560;2023-02-16T07:51:37;101960.27;;;1.80;77.27
70521;BME280;58442;52.716;23.560;2023-02-16T07:53:40;101949.83;;;1.84;77.23
70521;BME280;58442;52.716;23.560;2023-02-16T07:55:43;101956.30;;;1.88;77.22
70521;BME280;58442;52.716;23.560;2023-02-16T07:57:45;101952.28;;;1.90;77.13
70521;BME280;58442;52.716;23.560;2023-02-16T07:59:53;101951.21;;;1.91;77.10
70521;BME280;58442;52.716;23.560;2023-02-16T08:01:54;101943.73;;;1.94;77.16
70521;BME280;58442;52.716;23.560;2023-02-16T08:03:56;101942.41;;;1.96;77.18
70521;BME280;58442;52.716;23.560;2023-02-16T08:06:02;101947.27;;;1.99;77.19
70521;BME280;58442;52.716;23.560;2023-02-16T08:08:07;101942.44;;;2.01;77.18
70521;BME280;58442;52.716;23.560;2023-02-16T08:10:09;101933.86;;;2.04;77.25
70521;BME280;58442;52.716;23.560;2023-02-16T08:12:13;101935.23;;;2.07;77.24
70521;BME280;58442;52.716;23.560;2023-02-16T08:14:15;101929.07;;;2.11;77.26
70521;BME280;58442;52.716;23.560;2023-02-16T08:16:24;101933.93;;;2.14;77.20
70521;BME280;58442;52.716;23.560;2023-02-16T08:18:26;101923.47;;;2.18;77.19
70521;BME280;58442;52.716;23.560;2023-02-16T08:20:27;101922.16;;;2.21;77.19
70521;BME280;58442;52.716;23.560;2023-02-16T08:22:29;101915.46;;;2.23;77.18
70521;BME280;58442;52.716;23.560;2023-02-16T08:24:38;101914.92;;;2.26;77.16
70521;BME280;58442;52.716;23.560;2023-02-16T08:26:41;101910.65;;;2.30;77.14
70521;BME280;58442;52.716;23.560;2023-02-16T08:28:46;101910.95;;;2.34;77.07
70521;BME280;58442;52.716;23.560;2023-02-16T08:30:51;101903.98;;;2.38;76.98
70521;BME280;58442;52.716;23.560;2023-02-16T08:32:53;101906.15;;;2.41;76.97
70521;BME280;58442;52.716;23.560;2023-02-16T08:35:01;101904.80;;;2.43;76.89
70521;BME280;58442;52.716;23.560;2023-02-16T08:37:02;101904.80;;;2.43;76.95
70521;BME280;58442;52.716;23.560;2023-02-16T08:39:11;101904.27;;;2.46;76.95
70521;BME280;58442;52.716;23.560;2023-02-16T08:41:12;101902.68;;;2.51;76.92
70521;BME280;58442;52.716;23.560;2023-02-16T08:43:14;101896.77;;;2.54;76.91
70521;BME280;58442;52.716;23.560;2023-02-16T08:45:16;101900.02;;;2.56;76.86
70521;BME280;58442;52.716;23.560;2023-02-16T08:47:18;101898.66;;;2.58;76.87
70521;BME280;58442;52.716;23.560;2023-02-16T08:49:27;101895.20;;;2.63;76.87
70521;BME280;58442;52.716;23.560;2023-02-16T08:51:32;101888.48;;;2.65;76.83
70521;BME280;58442;52.716;23.560;2023-02-16T08:53:38;101892.26;;;2.69;76.81
70521;BME280;58442;52.716;23.560;2023-02-16T08:55:40;101884.73;;;2.71;76.77
70521;BME280;58442;52.716;23.560;2023-02-16T08:57:42;101882.59;;;2.73;76.80
70521;BME280;58442;52.716;23.560;2023-02-16T08:59:43;101891.20;;;2.76;76.92
70521;BME280;58442;52.716;23.560;2023-02-16T09:01:45;101891.46;;;2.79;76.94
70521;BME280;58442;52.716;23.560;2023-02-16T09:03:47;101896.04;;;2.84;77.02
70521;BME280;58442;52.716;23.560;2023-02-16T09:06:00;101896.30;;;2.87;77.09
70521;BME280;58442;52.716;23.560;2023-02-16T09:08:02;101895.51;;;2.92;77.10
70521;BME280;58442;52.716;23.560;2023-02-16T09:10:05;101896.59;;;2.96;77.17
70521;BME280;58442;52.716;23.560;2023-02-16T09:12:06;101890.97;;;3.03;77.17
70521;BME280;58442;52.716;23.560;2023-02-16T09:14:12;101892.83;;;3.07;77.18
70521;BME280;58442;52.716;23.560;2023-02-16T09:16:18;101880.49;;;3.16;77.09
70521;BME280;58442;52.716;23.560;2023-02-16T09:18:19;101873.49;;;3.25;76.99
70521;BME280;58442;52.716;23.560;2023-02-16T09:20:22;101876.72;;;3.33;76.88
70521;BME280;58442;52.716;23.560;2023-02-16T09:22:27;101869.74;;;3.37;76.83
70521;BME280;58442;52.716;23.560;2023-02-16T09:24:28;101882.89;;;3.43;76.83
70521;BME280;58442;52.716;23.560;2023-02-16T09:26:35;101886.11;;;3.50;76.78
70521;BME280;58442;52.716;23.560;2023-02-16T09:28:39;101883.38;;;3.61;76.69
70521;BME280;58442;52.716;23.560;2023-02-16T09:30:42;101879.86;;;3.70;76.57
70521;BME280;58442;52.716;23.560;2023-02-16T09:32:44;101880.13;;;3.79;76.40
70521;BME280;58442;52.716;23.560;2023-02-16T09:34:46;101883.34;;;3.86;76.27
70521;BME280;58442;52.716;23.560;2023-02-16T09:36:50;101882.48;;;3.96;76.18
70521;BME280;58442;52.716;23.560;2023-02-16T09:38:57;101884.60;;;4.04;76.17
70521;BME280;58442;52.716;23.560;2023-02-16T09:41:05;101881.91;;;4.09;76.12
70521;BME280;58442;52.716;23.560;2023-02-16T09:45:25;101875.94;;;4.17;76.01
70521;BME280;58442;52.716;23.560;2023-02-16T09:47:29;101872.15;;;4.23;76.03
70521;BME280;58442;52.716;23.560;2023-02-16T09:49:40;101871.05;;;4.29;75.95
70521;BME280;58442;52.716;23.560;2023-02-16T09:51:42;101869.95;;;4.35;75.82
70521;BME280;58442;52.716;23.560;2023-02-16T09:53:47;101870.45;;;4.43;75.80
70521;BME280;58442;52.716;23.560;2023-02-16T10:05:18;101856.77;;;4.73;75.37
70521;BME280;58442;52.716;23.560;2023-02-16T10:07:24;101855.17;;;4.72;75.31
70521;BME280;58442;52.716;23.560;2023-02-16T10:09:37;101857.87;;;4.72;75.22
70521;BME280;58442;52.716;23.560;2023-02-16T10:11:50;101857.87;;;4.72;75.18
70521;BME280;58442;52.716;23.560;2023-02-16T10:13:56;101844.95;;;4.74;75.18
70521;BME280;58442;52.716;23.560;2023-02-16T10:16:00;101859.95;;;4.80;75.15
70521;BME280;58442;52.716;23.560;2023-02-16T10:18:08;101857.23;;;4.85;75.07
70521;BME280;58442;52.716;23.560;2023-02-16T10:20:29;101848.55;;;4.93;75.06
70521;BME280;58442;52.716;23.560;2023-02-16T10:22:47;101848.52;;;4.99;74.96
70521;BME280;58442;52.716;23.560;2023-02-16T10:27:06;101839.30;;;5.05;74.70
70521;BME280;58442;52.716;23.560;2023-02-16T10:29:17;101837.41;;;5.05;74.69
70521;BME280;58442;52.716;23.560;2023-02-16T10:43:03;101828.16;;;5.16;74.29
70521;BME280;58442;52.716;23.560;2023-02-16T10:45:25;101827.88;;;5.18;74.24
70521;BME280;58442;52.716;23.560;2023-02-16T10:47:35;101832.69;;;5.21;74.14
70521;BME280;58442;52.716;23.560;2023-02-16T10:49:37;101826.49;;;5.20;74.12
70521;BME280;58442;52.716;23.560;2023-02-16T10:51:40;101824.05;;;5.24;74.14
70521;BME280;58442;52.716;23.560;2023-02-16T10:53:48;101823.76;;;5.26;74.13
70521;BME280;58442;52.716;23.560;2023-02-16T10:55:56;101815.92;;;5.29;74.04
70521;BME280;58442;52.716;23.560;2023-02-16T10:57:59;101817.23;;;5.32;73.98
70521;BME280;58442;52.716;23.560;2023-02-16T11:00:07;101815.05;;;5.34;73.93
70521;BME280;58442;52.716;23.560;2023-02-16T11:02:22;101813.70;;;5.36;73.82
70521;BME280;58442;52.716;23.560;2023-02-16T11:04:34;101812.89;;;5.36;73.84
70521;BME280;58442;52.716;23.560;2023-02-16T11:06:59;101816.39;;;5.36;73.85
70521;BME280;58442;52.716;23.560;2023-02-16T11:09:11;101813.91;;;5.40;73.79
70521;BME280;58442;52.716;23.560;2023-02-16T11:11:16;101819.25;;;5.45;73.62
70521;BME280;58442;52.716;23.560;2023-02-16T11:15:35;101808.69;;;5.48;73.37
70521;BME280;58442;52.716;23.560;2023-02-16T11:18:02;101808.13;;;5.52;73.40
70521;BME280;58442;52.716;23.560;2023-02-16T11:19:59;101806.45;;;5.56;73.44
70521;BME280;58442;52.716;23.560;2023-02-16T11:22:10;101812.38;;;5.58;73.38
70521;BME280;58442;52.716;23.560;2023-02-16T11:26:26;101804.25;;;5.63;73.20
70521;BME280;58442;52.716;23.560;2023-02-16T11:30:41;101794.46;;;5.67;73.03
70521;BME280;58442;52.716;23.560;2023-02-16T11:32:52;101795.51;;;5.71;72.97
70521;BME280;58442;52.716;23.560;2023-02-16T11:34:53;101791.42;;;5.73;72.98
70521;BME280;58442;52.716;23.560;2023-02-16T11:39:19;101785.46;;;5.76;72.88
70521;BME280;58442;52.716;23.560;2023-02-16T11:41:23;101785.46;;;5.76;72.89
70521;BME280;58442;52.716;23.560;2023-02-16T11:43:32;101776.28;;;5.78;72.87
70521;BME280;58442;52.716;23.560;2023-02-16T11:45:35;101765.20;;;5.79;72.85
70521;BME280;58442;52.716;23.560;2023-02-16T11:47:39;101767.30;;;5.82;73.10
70521;BME280;58442;52.716;23.560;2023-02-16T11:49:42;101772.08;;;5.90;72.72
70521;BME280;58442;52.716;23.560;2023-02-16T11:51:43;101767.71;;;5.94;72.61
70521;BME280;58442;52.716;23.560;2023-02-16T11:53:50;101759.62;;;5.94;72.56
70521;BME280;58442;52.716;23.560;2023-02-16T11:58:23;101749.87;;;5.98;72.50
70521;BME280;58442;52.716;23.560;2023-02-16T12:00:29;101743.88;;;6.01;72.42
70521;BME280;58442;52.716;23.560;2023-02-16T12:02:41;101747.07;;;6.03;72.40
70521;BME280;58442;52.716;23.560;2023-02-16T12:07:16;101734.54;;;6.13;72.26